Terminal Aerodrome Forecast
Issued by NWS Pittsburgh, PA

Current Version | Previous Version | Text Only | Print | Product List | Glossary Off
Versions: 1 2 3 4 5 6 7 8 9 10 11 12 13 14 15 16 17 18 19 20 21 22 23 24 25

000
FTUS41 KPBZ 210928 AAA
TAFPIT
TAF AMD
KPIT 210928Z 2109/2212 28005KT P6SM OVC025
     FM211700 33006KT P6SM BKN035
     FM220300 32014KT P6SM BKN050
     FM220500 33015G25KT P6SM BKN050=

USA.gov is the U.S. government's official web portal to all federal, state and local government web resources and services.